^^
Datos históricos de la estación: Murcia-Puente Tocinos
Diario Informe para Junio 17, 2021 Unidades:  Ingés    Métrico   Ambas
Diario Semanal Mensual Anual
  Máxima: Mínima: Promedio:
Temperatura: 86.7 °F 66 °F 77.5 °F
Punto de rocio: 68.5 °F 58.3 °F 62.8 °F
Humedad: 91% 39.7% 63%
Velocidad viento: 19.2mph 0mph 4.1mph
Racha viento: 36mph - -
Viento- - Sur
Presión: 29.8 in 29.7 in -
Precipitación: 0.32 in    
 
 
Tabla de datos para Junio 17, 2021
Hora Temperatura Punto de rocio Presión Viento Velocidad viento Racha viento Humedad Intensidad lluvia(por hora) Nubes
00:04 75.6 °F 67.5 °F 29.8 in Oeste 1.8 mph 6.2 mph 76% 0 in
00:09 75.6 °F 67.5 °F 29.8 in Oeste 2.5 mph 5.8 mph 76% 0 in
00:14 75.4 °F 67.3 °F 29.8 in ONO 3.1 mph 6 mph 76% 0 in
00:19 75.4 °F 67.5 °F 29.8 in ONO 3.4 mph 5.9 mph 76.4% 0 in
00:24 75.2 °F 67.5 °F 29.8 in ONO 3.6 mph 5.9 mph 77% 0 in
00:29 75 °F 67.3 °F 29.8 in Oeste 3.6 mph 6 mph 77% 0 in
00:34 75 °F 67.3 °F 29.8 in Oeste 3.6 mph 4.7 mph 77% 0 in
00:39 74.8 °F 67.5 °F 29.8 in ONO 3.3 mph 5 mph 77.9% 0 in
00:44 74.8 °F 67.5 °F 29.8 in Oeste 3.1 mph 5.2 mph 78% 0 in
00:49 74.8 °F 67.5 °F 29.8 in OSO 3.4 mph 5.8 mph 78% 0 in
00:54 74.8 °F 67.5 °F 29.8 in Oeste 3.6 mph 6 mph 78% 0 in
00:59 74.8 °F 67.5 °F 29.8 in Oeste 3.6 mph 6 mph 78% 0 in
01:04 74.8 °F 67.5 °F 29.8 in Oeste 3.6 mph 6 mph 78% 0 in
01:09 74.8 °F 67.5 °F 29.8 in ONO 3.2 mph 6 mph 78% 0 in
01:14 74.8 °F 67.6 °F 29.8 in ONO 2.9 mph 4.6 mph 78% 0 in
01:19 74.8 °F 67.6 °F 29.8 in ONO 2.2 mph 5 mph 78% 0 in
01:24 75 °F 67.6 °F 29.8 in NNE 1.8 mph 6.9 mph 78% 0 in
01:29 74.8 °F 67.5 °F 29.8 in ESE 2.5 mph 8.5 mph 78% 0 in
01:34 74.7 °F 67.3 °F 29.8 in SE 3.1 mph 9 mph 78% 0 in
01:39 74.5 °F 67.1 °F 29.8 in ESE 4 mph 6.2 mph 78% 0 in
01:44 74.3 °F 66.9 °F 29.8 in SE 4.7 mph 5.9 mph 78% 0 in
01:49 74.3 °F 67.1 °F 29.8 in SSE 4 mph 6 mph 78% 0 in
01:54 74.5 °F 67.3 °F 29.8 in SSE 3.6 mph 4.6 mph 78% 0 in
01:59 74.5 °F 67.3 °F 29.8 in SSE 2.9 mph 5 mph 78% 0 in
02:04 74.5 °F 67.3 °F 29.8 in Sur 2.4 mph 4.6 mph 78% 0 in
02:09 74.5 °F 67.3 °F 29.8 in Sur 2.4 mph 5 mph 78% 0 in
02:14 74.7 °F 67.3 °F 29.8 in SSO 2.4 mph 3.5 mph 78% 0 in
02:19 74.7 °F 67.3 °F 29.8 in Sur 2.1 mph 3.6 mph 78% 0 in
02:24 74.7 °F 67.3 °F 29.8 in ESE 1.8 mph 4.7 mph 78% 0 in
02:29 74.8 °F 67.5 °F 29.8 in ENE 2.2 mph 4.6 mph 78% 0 in
02:34 74.7 °F 67.5 °F 29.8 in Este 2.4 mph 5 mph 78% 0 in
02:39 74.7 °F 67.3 °F 29.8 in ESE 2.2 mph 5 mph 78% 0 in
02:44 74.7 °F 67.3 °F 29.8 in Sur 2 mph 3.5 mph 78% 0 in
02:49 74.8 °F 67.5 °F 29.8 in Sur 1.9 mph 3 mph 78% 0 in
02:54 74.8 °F 67.6 °F 29.8 in ENE 1.8 mph 3 mph 78.5% 0 in
02:59 74.8 °F 67.8 °F 29.8 in NO 1.8 mph 5.2 mph 79% 0 in
03:04 74.7 °F 67.6 °F 29.8 in NNO 1.8 mph 5 mph 79% 0 in
03:09 74.5 °F 67.8 °F 29.8 in NO 2.5 mph 5 mph 79.9% 0 in
03:14 74.3 °F 67.6 °F 29.8 in ONO 2.9 mph 3.6 mph 80% 0 in
03:19 74.1 °F 67.6 °F 29.8 in Oeste 2.6 mph 4.6 mph 80% 0 in
03:24 74.1 °F 67.8 °F 29.8 in Oeste 2.4 mph 3.6 mph 80.5% 0 in
03:29 74.1 °F 67.8 °F 29.8 in North 2.4 mph 6.2 mph 81% 0 in
03:34 73.9 °F 67.8 °F 29.8 in NNO 2.4 mph 4.6 mph 81% 0 in
03:39 73.8 °F 67.6 °F 29.8 in NNE 2.7 mph 5.2 mph 81% 0 in
03:44 73.6 °F 67.5 °F 29.8 in NE 2.9 mph 5.8 mph 81% 0 in
03:49 73.6 °F 67.6 °F 29.8 in ENE 3.4 mph 6.2 mph 82% 0 in
03:54 73.4 °F 67.8 °F 29.8 in NE 3.6 mph 6.9 mph 82.9% 0 in
03:59 73.2 °F 68 °F 29.8 in NE 3.6 mph 4.7 mph 83.6% 0 in
04:04 73 °F 68 °F 29.8 in ENE 3.6 mph 5.2 mph 84% 0 in
04:09 73 °F 68.2 °F 29.8 in Este 3.2 mph 5 mph 84.6% 0 in
04:14 73 °F 68.4 °F 29.8 in ENE 2.9 mph 5 mph 85% 0 in
04:19 72.9 °F 68.2 °F 29.8 in NE 2.9 mph 5.9 mph 85% 0 in
04:24 72.7 °F 68 °F 29.8 in NE 2.9 mph 6 mph 85% 0 in
04:29 72.7 °F 67.8 °F 29.8 in NE 2.9 mph 5 mph 85% 0 in
04:34 72.7 °F 68.2 °F 29.8 in NE 2.9 mph 4.6 mph 85.7% 0 in
04:39 72.7 °F 68 °F 29.8 in NE 2.9 mph 4.7 mph 85.2% 0 in
04:44 72.7 °F 68.2 °F 29.8 in NE 2.9 mph 5 mph 85.8% 0 in
04:49 72.9 °F 68.4 °F 29.8 in NE 2.3 mph 5 mph 86% 0 in
04:54 72.9 °F 68.4 °F 29.8 in NNO 2 mph 3.5 mph 86% 0 in
04:59 72.9 °F 68.4 °F 29.8 in ONO 1.6 mph 3.5 mph 86% 0 in
05:04 72.9 °F 68.4 °F 29.8 in ONO 1.4 mph 3.1 mph 86% 0 in
05:09 72.7 °F 68.2 °F 29.8 in ONO 1.6 mph 3.6 mph 86% 0 in
05:14 72.7 °F 68.2 °F 29.8 in NO 1.8 mph 4 mph 86% 0 in
05:19 72.5 °F 68.2 °F 29.8 in SO 1.8 mph 4.6 mph 86% 0 in
05:24 72.5 °F 68.4 °F 29.8 in SE 1.8 mph 4.7 mph 86.8% 0 in
05:29 72.5 °F 68.4 °F 29.8 in Sur 2.5 mph 7.4 mph 87% 0 in
05:34 72.5 °F 68.4 °F 29.8 in Sur 3.1 mph 8.1 mph 87% 0 in
05:39 72.7 °F 68.5 °F 29.8 in SSE 4.4 mph 8.5 mph 87% 0 in
05:44 72.7 °F 68.5 °F 29.8 in Sur 5.4 mph 14 mph 87% 0 in
05:49 72.3 °F 67.8 °F 29.8 in SO 7.8 mph 36 mph 85.5% 0.04 in
05:54 69.8 °F 65.3 °F 29.8 in SO 9.2 mph 36 mph 85.6% 0.2 in
05:59 68.2 °F 65.1 °F 29.8 in SO 15.3 mph 32.2 mph 89.5% 0.26 in
06:04 67.3 °F 64.2 °F 29.8 in OSO 19.2 mph 32 mph 90% 0.26 in
06:09 66.9 °F 63.9 °F 29.8 in OSO 14.7 mph 21 mph 90% 0.26 in
06:14 66.7 °F 63.7 °F 29.8 in Oeste 11.8 mph 12.7 mph 90% 0.26 in
06:19 66.6 °F 63.5 °F 29.8 in ONO 8.9 mph 13 mph 90% 0.26 in
06:24 66.2 °F 63.3 °F 29.8 in Oeste 6.9 mph 10 mph 90% 0.26 in
06:29 66 °F 63 °F 29.8 in OSO 5.3 mph 8.1 mph 90% 0.26 in
06:34 66 °F 63.1 °F 29.8 in ONO 4.3 mph 8.1 mph 90.5% 0.26 in
06:39 66 °F 63.3 °F 29.8 in North 3.6 mph 8 mph 91% 0.26 in
06:44 66 °F 63.3 °F 29.8 in North 3.1 mph 7 mph 91% 0.26 in
06:49 66 °F 63.3 °F 29.8 in SSO 3 mph 5 mph 91% 0.26 in
06:54 66 °F 63.3 °F 29.8 in ESE 2.9 mph 5.9 mph 91% 0.2 in
06:59 66.2 °F 63.5 °F 29.8 in SE 3 mph 6.9 mph 91% 0 in
07:04 66.4 °F 63.7 °F 29.8 in SE 3.1 mph 7.6 mph 90.9% 0 in
07:09 66.4 °F 63.5 °F 29.8 in SSE 3.8 mph 9.2 mph 90.6% 0 in
07:14 66.4 °F 63.3 °F 29.8 in SSE 4.3 mph 9.7 mph 90% 0 in
07:19 66.6 °F 63.5 °F 29.8 in Sur 4.1 mph 6.2 mph 90% 0 in
07:24 66.6 °F 63.5 °F 29.8 in SSO 4 mph 6.4 mph 90% 0 in
07:29 66.7 °F 63.7 °F 29.8 in SSO 3 mph 9.7 mph 90% 0 in
07:34 66.9 °F 63.7 °F 29.8 in SSO 2.4 mph 13.8 mph 89.2% 0 in
07:39 66.9 °F 63.1 °F 29.8 in SO 4.9 mph 14 mph 87.5% 0 in
07:44 66.9 °F 63 °F 29.8 in SO 6.4 mph 12 mph 86.8% 0 in
07:49 67.1 °F 62.8 °F 29.8 in SO 5.8 mph 10.2 mph 85.9% 0 in
07:54 67.5 °F 62.8 °F 29.8 in SO 5.4 mph 10.4 mph 85% 0 in
07:59 67.6 °F 62.8 °F 29.8 in SO 5.3 mph 10 mph 84.4% 0.06 in
08:04 67.8 °F 62.8 °F 29.8 in SO 5.2 mph 10 mph 84.1% 0.06 in
08:09 67.8 °F 62.8 °F 29.8 in SSO 5.3 mph 10.4 mph 84% 0.06 in
08:14 67.8 °F 62.8 °F 29.8 in SSO 5.4 mph 11.8 mph 83.6% 0.06 in
08:19 67.8 °F 62.4 °F 29.8 in SSO 6 mph 12 mph 83% 0.06 in
08:24 67.8 °F 62.4 °F 29.8 in Sur 6.4 mph 10.4 mph 82.8% 0.06 in
08:29 68 °F 62.6 °F 29.8 in Sur 6.2 mph 10.4 mph 82.9% 0.06 in
08:34 68.2 °F 62.6 °F 29.8 in Sur 5.9 mph 10 mph 82.3% 0.06 in
08:39 68.4 °F 62.6 °F 29.8 in SSO 5.6 mph 10 mph 82.2% 0.06 in
08:44 68.5 °F 62.6 °F 29.8 in SO 5.4 mph 10.4 mph 81.5% 0.06 in
08:49 68.7 °F 62.4 °F 29.8 in SSO 4.6 mph 6.9 mph 80.5% 0.06 in
08:54 69.1 °F 62.4 °F 29.8 in Sur 4 mph 10.4 mph 79% 0.06 in
08:59 69.4 °F 62.4 °F 29.8 in Sur 4.4 mph 13.8 mph 78.1% 0 in
09:04 69.8 °F 62.2 °F 29.8 in SSO 4.7 mph 14 mph 77% 0 in
09:09 70 °F 62.2 °F 29.8 in SSO 5.7 mph 10.4 mph 76.8% 0 in
09:14 70.2 °F 62.4 °F 29.8 in SSO 6.4 mph 10.4 mph 77% 0 in
09:19 70.3 °F 62.6 °F 29.8 in SSO 6.3 mph 11.5 mph 76.9% 0 in
09:24 70.5 °F 63 °F 29.8 in SSO 6.2 mph 8.1 mph 77% 0 in
09:29 70.9 °F 62.8 °F 29.8 in SO 5.7 mph 12.3 mph 75.5% 0 in
09:34 71.1 °F 62.4 °F 29.8 in SO 5.4 mph 13 mph 74.1% 0 in
09:39 71.2 °F 62.6 °F 29.8 in SSO 5 mph 13 mph 74.5% 0 in
09:44 71.6 °F 62.8 °F 29.8 in SO 4.7 mph 6.9 mph 74% 0 in
09:49 72 °F 62.8 °F 29.8 in SO 3.2 mph 9.2 mph 72.9% 0 in
09:54 72.1 °F 62.1 °F 29.8 in OSO 2 mph 11.5 mph 70.8% 0 in
09:59 72.1 °F 62.1 °F 29.8 in SO 3.6 mph 12 mph 70.4% 0 in
10:04 72.7 °F 62.1 °F 29.8 in Oeste 4.7 mph 12 mph 69.5% 0 in
10:09 72.9 °F 62.1 °F 29.8 in OSO 2.9 mph 8.5 mph 69.1% 0 in
10:14 73 °F 62.1 °F 29.8 in OSO 1.8 mph 5.2 mph 68.3% 0 in
10:19 73.4 °F 62.4 °F 29.8 in OSO 0.7 mph 5 mph 68.3% 0 in
10:24 73.8 °F 62.1 °F 29.8 in Calm   5.9 mph 67.1% 0 in
10:29 73.8 °F 62.2 °F 29.8 in OSO 0.9 mph 6.9 mph 67.1% 0 in
10:34 73.9 °F 62.4 °F 29.8 in OSO 1.4 mph 6.9 mph 67.5% 0 in
10:39 74.1 °F 62.4 °F 29.8 in Oeste 1.8 mph 7 mph 67% 0 in
10:44 74.1 °F 62.6 °F 29.8 in NNO 2 mph 4.6 mph 67.1% 0 in
10:49 74.5 °F 63 °F 29.8 in North 0.8 mph 3.6 mph 67.4% 0 in
10:54 74.8 °F 62.8 °F 29.8 in Calm   4.6 mph 66.1% 0 in
10:59 75.2 °F 63.1 °F 29.8 in Calm   5 mph 66% 0 in
11:04 75.7 °F 62.8 °F 29.8 in Calm     64.4% 0 in
11:09 75.9 °F 63 °F 29.8 in Calm     64% 0 in
11:14 76.3 °F 62.8 °F 29.8 in Calm     62.9% 0 in
11:19 76.6 °F 62.4 °F 29.8 in Calm     61.8% 0 in
11:24 76.6 °F 62.6 °F 29.8 in Calm     61.9% 0 in
11:29 76.6 °F 62.8 °F 29.8 in Calm     62% 0 in
11:34 77.2 °F 63 °F 29.8 in Calm     61.4% 0 in
11:39 77.5 °F 62.6 °F 29.8 in Calm     60.1% 0 in
11:44 77.9 °F 62.8 °F 29.8 in Calm   3.6 mph 59.5% 0 in
11:49 78.1 °F 62.6 °F 29.8 in Calm   2.3 mph 59% 0 in
11:54 78.3 °F 62.6 °F 29.8 in Calm   2.3 mph 58.6% 0 in
11:59 78.4 °F 62.6 °F 29.8 in Calm   2 mph 58.4% 0 in
12:04 78.3 °F 62.4 °F 29.8 in Calm   2.9 mph 58.1% 0 in
12:09 78.3 °F 62.4 °F 29.8 in Calm   6.2 mph 58.1% 0 in
12:14 78.6 °F 61.7 °F 29.8 in Calm   7.4 mph 56.2% 0 in
12:19 79 °F 61 °F 29.8 in ESE 1.1 mph 5.2 mph 54% 0 in
12:24 79.3 °F 61 °F 29.8 in SE 1.8 mph 6.9 mph 53.4% 0 in
12:29 79.5 °F 61 °F 29.8 in SSE 1.6 mph 7 mph 53% 0 in
12:34 79.7 °F 62.2 °F 29.8 in ESE 1.4 mph 5.8 mph 55.3% 0 in
12:39 80.1 °F 63 °F 29.8 in Este 0.5 mph 6 mph 55.9% 0 in
12:44 80.4 °F 63.3 °F 29.8 in Calm   12.7 mph 55.9% 0 in
12:49 80.8 °F 63.1 °F 29.8 in Este 2.2 mph 13 mph 55.1% 0 in
12:54 80.8 °F 62.8 °F 29.8 in Este 3.6 mph 12.3 mph 54.4% 0 in
12:59 80.6 °F 62.4 °F 29.8 in Este 5.3 mph 13 mph 53.8% 0 in
13:04 80.4 °F 62.2 °F 29.8 in ESE 6.4 mph 13.8 mph 54% 0 in
13:09 80.4 °F 62.2 °F 29.8 in Este 6.7 mph 10.7 mph 54.1% 0 in
13:14 80.8 °F 62.4 °F 29.8 in NE 6.9 mph 9.2 mph 53.8% 0 in
13:19 80.8 °F 62.1 °F 29.8 in NE 5.9 mph 9.2 mph 53% 0 in
13:24 81 °F 62.1 °F 29.8 in NE 5.4 mph 9 mph 52.8% 0 in
13:29 81.1 °F 61.7 °F 29.8 in NNE 4.7 mph 10.7 mph 52% 0 in
13:34 81.1 °F 61.3 °F 29.8 in North 4.3 mph 11 mph 51% 0 in
13:39 81.1 °F 61.2 °F 29.8 in NE 5 mph 9.7 mph 50.7% 0 in
13:44 81 °F 60.6 °F 29.8 in NE 5.4 mph 9.2 mph 50.1% 0 in
13:49 81.3 °F 60.8 °F 29.8 in North 5 mph 8.1 mph 49.8% 0 in
13:54 81.9 °F 60.3 °F 29.8 in NNE 4.7 mph 6.2 mph 48.1% 0 in
13:59 82 °F 60.3 °F 29.8 in Este 4 mph 7.4 mph 47.6% 0 in
14:04 82.6 °F 60.4 °F 29.8 in Este 3.6 mph 9.2 mph 47.2% 0 in
14:09 82.9 °F 60.4 °F 29.8 in ENE 4 mph 9 mph 46.5% 0 in
14:14 83.3 °F 60.4 °F 29.8 in NNE 4.3 mph 8.1 mph 46.3% 0 in
14:19 83.3 °F 61.3 °F 29.8 in NE 4.1 mph 9.2 mph 47.7% 0 in
14:24 83.1 °F 60.6 °F 29.8 in NNO 4 mph 10.4 mph 46.5% 0 in
14:29 82.9 °F 60.6 °F 29.8 in NO 5.1 mph 10.7 mph 47% 0 in
14:34 82.9 °F 60.3 °F 29.8 in Oeste 5.9 mph 11 mph 46.2% 0 in
14:39 83.3 °F 61.3 °F 29.8 in NNE 5.2 mph 10 mph 47.6% 0 in
14:44 83.7 °F 62.8 °F 29.8 in NNO 4.7 mph 13.5 mph 49.5% 0 in
14:49 83.5 °F 62.6 °F 29.8 in North 5.6 mph 13.8 mph 49.4% 0 in
14:54 83.5 °F 62.4 °F 29.8 in NNO 6.2 mph 11.4 mph 49.1% 0 in
14:59 83.5 °F 62.4 °F 29.8 in North 6 mph 12 mph 49% 0 in
15:04 83.1 °F 62.1 °F 29.8 in NNE 5.9 mph 13.8 mph 49% 0 in
15:09 82.9 °F 62.1 °F 29.8 in North 6.2 mph 11.5 mph 49.6% 0 in
15:14 83.1 °F 62.1 °F 29.8 in NNO 6.4 mph 12 mph 49% 0 in
15:19 83.7 °F 61.7 °F 29.8 in NO 5.7 mph 8.5 mph 47.9% 0 in
15:24 84 °F 61.7 °F 29.8 in NNE 5.2 mph 9.7 mph 47.1% 0 in
15:29 84.4 °F 60.8 °F 29.8 in NE 4.9 mph 10.7 mph 45.1% 0 in
15:34 84 °F 60.3 °F 29.8 in NNE 4.7 mph 10.4 mph 44.8% 0 in
15:39 84 °F 60.1 °F 29.8 in North 6.1 mph 10 mph 44.3% 0 in
15:44 84 °F 60.3 °F 29.8 in NNE 6.9 mph 9 mph 44.7% 0 in
15:49 84.2 °F 60.3 °F 29.8 in North 5.2 mph 5.8 mph 44.5% 0 in
15:54 84.6 °F 60.4 °F 29.8 in NNE 4 mph 6.9 mph 44.5% 0 in
15:59 84.4 °F 60.6 °F 29.8 in NNE 4 mph 7.4 mph 44.7% 0 in
16:04 84.4 °F 60.8 °F 29.8 in NE 4 mph 7 mph 45% 0 in
16:09 84.6 °F 60.6 °F 29.8 in ESE 3.5 mph 6.9 mph 44.5% 0 in
16:14 84.9 °F 60.4 °F 29.7 in SE 3.1 mph 6.9 mph 43.8% 0 in
16:19 85.3 °F 60.3 °F 29.7 in ENE 3.4 mph 7.4 mph 43.1% 0 in
16:24 85.3 °F 60.3 °F 29.7 in Este 3.6 mph 10.7 mph 43% 0 in
16:29 85.5 °F 60.4 °F 29.7 in SE 4.5 mph 11.8 mph 43.1% 0 in
16:34 85.5 °F 60.1 °F 29.7 in SE 5.2 mph 12 mph 42.3% 0 in
16:39 85.6 °F 60.3 °F 29.7 in NE 5.2 mph 10.4 mph 42.4% 0 in
16:44 85.8 °F 59.5 °F 29.7 in NNO 5.2 mph 6.9 mph 41.2% 0 in
16:49 86.2 °F 59.7 °F 29.7 in ESE 3.9 mph 6.9 mph 41.1% 0 in
16:54 86.5 °F 59.9 °F 29.7 in SSE 3.1 mph 9.2 mph 40.9% 0 in
16:59 86.5 °F 59.2 °F 29.7 in SSE 3.7 mph 10.4 mph 40% 0 in
17:04 86.2 °F 59.4 °F 29.7 in SE 4 mph 10 mph 40.6% 0 in
17:09 86.4 °F 59.9 °F 29.7 in SSE 4.7 mph 11.4 mph 41% 0 in
17:14 86.4 °F 59 °F 29.7 in SSO 5.2 mph 12 mph 40% 0 in
17:19 86.4 °F 59.2 °F 29.7 in OSO 4.9 mph 10.4 mph 40% 0 in
17:24 86.2 °F 59.2 °F 29.7 in OSO 4.7 mph 8.1 mph 40.1% 0 in
17:29 86.5 °F 59.4 °F 29.7 in SSO 4.7 mph 9.7 mph 40% 0 in
17:34 86.7 °F 59.4 °F 29.7 in Sur 4.7 mph 10.7 mph 39.9% 0 in
17:39 86.5 °F 59.2 °F 29.7 in SE 5.4 mph 9.2 mph 39.7% 0 in
17:44 86.5 °F 59.4 °F 29.7 in SE 5.9 mph 9.2 mph 40% 0 in
17:49 86.5 °F 59.4 °F 29.7 in ESE 5.2 mph 9.2 mph 40% 0 in
17:54 86.5 °F 60.3 °F 29.7 in SE 4.7 mph 15.9 mph 41.4% 0 in
17:59 85.8 °F 60.4 °F 29.7 in ESE 7.1 mph 16.3 mph 42.6% 0 in
18:04 85.6 °F 60.6 °F 29.7 in SE 8.5 mph 16 mph 43% 0 in
18:09 85.5 °F 60.4 °F 29.7 in SE 8.9 mph 15 mph 43% 0 in
18:14 85.5 °F 60.3 °F 29.7 in SE 9.2 mph 14 mph 42.9% 0 in
18:19 85.6 °F 60.1 °F 29.7 in SE 7.8 mph 12.5 mph 42.2% 0 in
18:24 85.5 °F 59.7 °F 29.7 in SE 6.9 mph 13.8 mph 42% 0 in
18:29 85.3 °F 59.9 °F 29.7 in SSE 7.6 mph 14 mph 42.5% 0 in
18:34 84.9 °F 59.7 °F 29.7 in SSE 8.1 mph 15.9 mph 42.9% 0 in
18:39 84.6 °F 59.5 °F 29.7 in SE 9.1 mph 16.1 mph 43% 0 in
18:44 84.6 °F 59.5 °F 29.7 in SE 9.7 mph 14 mph 43% 0 in
18:49 84.6 °F 59.5 °F 29.7 in SE 9.1 mph 13.8 mph 43% 0 in
18:54 84.6 °F 59.5 °F 29.7 in SE 8.7 mph 16.1 mph 43% 0 in
18:59 84.6 °F 59.5 °F 29.7 in SE 8 mph 15 mph 43% 0 in
19:04 84.4 °F 59.4 °F 29.7 in SE 7.6 mph 15 mph 43% 0 in
19:09 84.2 °F 59.2 °F 29.8 in SSE 8.1 mph 18.4 mph 43% 0 in
19:14 83.8 °F 59.5 °F 29.8 in SSE 8.5 mph 15 mph 43.8% 0 in
19:19 83.8 °F 59.5 °F 29.8 in SE 9.4 mph 14 mph 44% 0 in
19:24 84 °F 59.7 °F 29.8 in SE 10 mph 12.5 mph 44% 0 in
19:29 84 °F 59.5 °F 29.8 in SE 8.8 mph 17.3 mph 43.8% 0 in
19:34 83.8 °F 59.5 °F 29.8 in SE 8.1 mph 13 mph 44% 0 in
19:39 83.8 °F 59.2 °F 29.8 in SSE 7.8 mph 17.3 mph 43.3% 0 in
19:44 83.7 °F 58.8 °F 29.8 in SE 7.6 mph 17 mph 43% 0 in
19:49 83.7 °F 58.8 °F 29.8 in SE 8 mph 14 mph 43.1% 0 in
19:54 83.8 °F 59 °F 29.8 in SE 8.1 mph 11.4 mph 43% 0 in
19:59 83.7 °F 58.8 °F 29.8 in SE 6.6 mph 12 mph 43% 0 in
20:04 83.7 °F 58.8 °F 29.8 in SE 5.9 mph 12 mph 43% 0 in
20:09 83.8 °F 59 °F 29.8 in SE 5.9 mph 10.7 mph 43% 0 in
20:14 83.8 °F 59 °F 29.8 in SSE 5.9 mph 11.8 mph 42.9% 0 in
20:19 83.8 °F 58.3 °F 29.8 in SSE 7 mph 12 mph 42% 0 in
20:24 83.8 °F 58.5 °F 29.8 in SSE 7.6 mph 12 mph 42.3% 0 in
20:29 83.8 °F 58.8 °F 29.8 in SSE 7.1 mph 10.4 mph 42.8% 0 in
20:34 83.8 °F 59 °F 29.8 in SSE 6.9 mph 10 mph 43% 0 in
20:39 83.8 °F 59 °F 29.8 in SE 6 mph 6.9 mph 43% 0 in
20:44 83.8 °F 59 °F 29.8 in SE 5.4 mph 6.9 mph 43% 0 in
20:49 83.8 °F 59 °F 29.8 in SE 4.7 mph 8.1 mph 43% 0 in
20:54 83.8 °F 59.4 °F 29.8 in SSE 4.3 mph 9.2 mph 43.6% 0 in
20:59 83.5 °F 59.5 °F 29.8 in ESE 4.8 mph 7.4 mph 44.5% 0 in
21:04 83.1 °F 59.7 °F 29.8 in ESE 5.2 mph 7 mph 45% 0 in
21:09 82.9 °F 59.5 °F 29.8 in SE 4.3 mph 5.4 mph 45% 0 in
21:14 82.9 °F 59.4 °F 29.8 in SSE 3.6 mph 6 mph 45% 0 in
21:19 82.8 °F 59.4 °F 29.8 in SE 3.2 mph 4.7 mph 45% 0 in
21:24 82.6 °F 59.5 °F 29.8 in ESE 2.9 mph 5.2 mph 45.9% 0 in
21:29 82.2 °F 59.5 °F 29.8 in ESE 2.9 mph 5 mph 46.1% 0 in
21:34 82 °F 59.5 °F 29.8 in ESE 2.9 mph 4.7 mph 46.4% 0 in
21:39 81.9 °F 59.7 °F 29.8 in ESE 2.9 mph 5.2 mph 46.9% 0 in
21:44 81.7 °F 59.5 °F 29.8 in ESE 2.9 mph 4.7 mph 47% 0 in
21:49 81.3 °F 59.4 °F 29.8 in ESE 2.9 mph 5 mph 47.2% 0 in
21:54 81.3 °F 59.2 °F 29.8 in SE 2.9 mph 4.6 mph 47.1% 0 in
21:59 81.1 °F 59.5 °F 29.8 in Este 2.9 mph 5 mph 47.8% 0 in
22:04 81 °F 59.5 °F 29.8 in ESE 2.9 mph 5.8 mph 48% 0 in
22:09 80.8 °F 59.7 °F 29.8 in SE 2.9 mph 4.7 mph 48.9% 0 in
22:14 80.8 °F 59.5 °F 29.8 in SSE 2.9 mph 4.6 mph 48.7% 0 in
22:19 80.8 °F 59.4 °F 29.8 in SSE 3 mph 5.9 mph 48.1% 0 in
22:24 80.8 °F 59.2 °F 29.8 in Sur 3.1 mph 4.6 mph 47.9% 0 in
22:29 80.8 °F 59.4 °F 29.8 in SSO 3 mph 5 mph 48% 0 in
22:34 81 °F 59.4 °F 29.8 in Oeste 2.9 mph 5.8 mph 47.9% 0 in
22:39 80.8 °F 59.9 °F 29.8 in NO 2.6 mph 4.7 mph 49.1% 0 in
22:44 80.4 °F 60.1 °F 29.8 in NO 2.4 mph 6.9 mph 50.1% 0 in
22:49 79.9 °F 60.8 °F 29.8 in NO 3.1 mph 6.9 mph 52.2% 0 in
22:54 79.2 °F 61 °F 29.8 in NO 3.6 mph 7 mph 53.6% 0 in
22:59 78.8 °F 60.6 °F 29.8 in NO 3.6 mph 4.6 mph 54% 0 in
23:04 78.6 °F 61 °F 29.8 in ONO 3.6 mph 5 mph 54.7% 0 in
23:09 78.4 °F 60.8 °F 29.8 in ONO 2.5 mph 3.5 mph 54.9% 0 in
23:14 78.4 °F 60.6 °F 29.8 in ONO 1.8 mph 2 mph 54.6% 0 in
23:19 78.4 °F 60.3 °F 29.8 in ONO 0.7 mph 3.6 mph 53.7% 0 in
23:24 78.6 °F 60.1 °F 29.8 in Calm   2.3 mph 53% 0 in
23:29 79 °F 60.8 °F 29.8 in SSO 0.8 mph 3.5 mph 53.7% 0 in
23:34 79 °F 61 °F 29.8 in Sur 1.4 mph 4.6 mph 54% 0 in
23:39 78.6 °F 60.6 °F 29.8 in SE 2.1 mph 5.2 mph 54% 0 in
23:44 78.4 °F 60.6 °F 29.8 in SSE 2.4 mph 4.6 mph 54.5% 0 in
23:49 78.3 °F 60.3 °F 29.8 in SSE 2.4 mph 4 mph 54% 0 in
23:54 78.3 °F 60.4 °F 29.8 in SSE 2.4 mph 2.3 mph 54.4% 0 in
23:59 78.3 °F 60.3 °F 29.8 in SSE 0.8 mph 2.9 mph 54.2% 0 in
Murcia-Puente Tocinos, España
Compliments of Weather Underground - 3 mb

La estación de MeteoMurcia.com, publica sus datos en los siguientes proyectos:

Weather Underground PWS IMURCIAP2 Meteoclimatic www.awekas.at

W3Counter
Web Analytics